Time;durP1;ratioP1;P1;durP2;ratioP2;P2;SDS_P1;SDS_P2;PMS_P1;PMS_P2;Temp;Humidity;BMP_temperature;BMP_pressure;BME280_temperature;BME280_humidity;BME280_pressure;Samples;Min_cycle;Max_cycle;Signal;HPM_P1;HPM_P2
2022/04/27 00:00:48;;;;;;;9.97;9.07;;;;;;;11.14;77.42;100799.25;5020758;28;20882;-68
2022/04/27 00:03:13;;;;;;;10.20;9.30;;;;;;;11.10;77.75;100792.69;5024253;28;20403;-68
2022/04/27 00:05:38;;;;;;;10.07;9.17;;;;;;;11.13;77.88;100795.72;5014078;28;20423;-68
2022/04/27 00:08:04;;;;;;;9.93;9.03;;;;;;;11.14;77.75;100783.81;5028937;28;20410;-68
2022/04/27 00:10:29;;;;;;;9.77;8.87;;;;;;;11.14;77.57;100775.69;5028156;28;20412;-68
2022/04/27 00:12:55;;;;;;;11.83;9.33;;;;;;;11.12;77.31;100766.13;5023343;28;20982;-68
2022/04/27 00:15:23;;;;;;;10.63;9.63;;;;;;;11.12;77.23;100766.13;5027168;28;20426;-68
2022/04/27 00:17:48;;;;;;;10.93;9.88;;;;;;;11.10;77.33;100774.50;5013612;28;20917;-68
2022/04/27 00:20:14;;;;;;;11.10;9.97;;;;;;;11.05;77.71;100779.84;5018574;28;20456;-68
2022/04/27 00:22:39;;;;;;;11.52;10.32;;;;;;;11.06;77.87;100780.66;5025314;28;20417;-68
2022/04/27 00:25:05;;;;;;;11.97;10.77;;;;;;;11.08;78.00;100782.06;5017876;28;20451;-68
2022/04/27 00:27:31;;;;;;;11.00;9.90;;;;;;;11.09;78.18;100783.72;5012900;28;20765;-68
2022/04/27 00:29:58;;;;;;;11.85;10.73;;;;;;;11.12;77.96;100780.53;5017394;28;20396;-68
2022/04/27 00:32:23;;;;;;;11.95;10.75;;;;;;;11.13;77.70;100773.22;5021671;28;20804;-68
2022/04/27 00:34:49;;;;;;;11.90;10.70;;;;;;;11.09;77.88;100775.59;5009260;28;20413;-68
2022/04/27 00:37:15;;;;;;;11.77;10.57;;;;;;;11.08;77.99;100784.78;5028780;28;20449;-68
2022/04/27 00:39:40;;;;;;;11.75;10.65;;;;;;;11.08;77.92;100781.25;5016977;28;20424;-68
2022/04/27 00:42:23;;;;;;;11.93;10.83;;;;;;;11.08;77.80;100778.53;5021790;28;20474;-68
2022/04/27 00:44:48;;;;;;;12.13;10.70;;;;;;;11.02;77.92;100779.50;5007673;28;20416;-68
2022/04/27 00:47:15;;;;;;;11.90;10.73;;;;;;;11.06;78.00;100784.22;5014786;28;20761;-68
2022/04/27 00:49:47;;;;;;;11.32;10.32;;;;;;;10.95;78.05;100782.34;5029142;28;20388;-68
2022/04/27 00:52:13;;;;;;;12.57;11.37;;;;;;;10.87;78.72;100782.69;5012815;28;20444;-68
2022/04/27 00:54:40;;;;;;;12.48;11.05;;;;;;;10.91;78.51;100795.53;5008405;28;20912;-68
2022/04/27 00:57:06;;;;;;;12.63;11.43;;;;;;;10.93;78.51;100801.53;5017054;28;20415;-68
2022/04/27 00:59:32;;;;;;;12.27;11.13;;;;;;;10.94;78.67;100794.25;5028738;28;20454;-68
2022/04/27 01:01:57;;;;;;;11.93;10.73;;;;;;;10.89;78.68;100805.81;5014931;28;20411;-68
2022/04/27 01:04:23;;;;;;;12.32;10.50;;;;;;;10.91;78.58;100806.38;5013844;28;20486;-68
2022/04/27 01:06:48;;;;;;;12.10;11.00;;;;;;;10.95;78.39;100806.75;5032993;28;20403;-68
2022/04/27 01:09:14;;;;;;;11.90;10.57;;;;;;;10.95;78.35;100809.47;5013142;28;20404;-68
2022/04/27 01:11:40;;;;;;;11.77;10.68;;;;;;;10.90;78.05;100799.31;5018354;28;20403;-68
2022/04/27 01:14:05;;;;;;;11.10;9.98;;;;;;;10.94;78.01;100813.22;5009106;28;20402;-68
2022/04/27 01:16:31;;;;;;;11.80;10.70;;;;;;;10.99;77.72;100812.50;5020412;28;20413;-68
2022/04/27 01:18:56;;;;;;;12.07;10.73;;;;;;;10.99;77.64;100807.09;5029077;28;20564;-68
2022/04/27 01:21:22;;;;;;;12.17;10.83;;;;;;;10.98;77.72;100803.56;5016621;28;20427;-68
2022/04/27 01:23:47;;;;;;;12.45;11.25;;;;;;;10.94;77.65;100794.25;5009730;28;20420;-68
2022/04/27 01:26:13;;;;;;;12.47;11.27;;;;;;;10.91;77.98;100792.84;5025981;28;20434;-68
2022/04/27 01:28:38;;;;;;;13.43;11.93;;;;;;;10.91;78.07;100798.25;5014794;28;20898;-68
2022/04/27 01:31:08;;;;;;;13.47;12.07;;;;;;;10.91;78.03;100792.84;5016496;28;20762;-68
2022/04/27 01:33:34;;;;;;;13.30;11.80;;;;;;;10.94;77.66;100796.94;5010403;28;20410;-68
2022/04/27 01:36:07;;;;;;;13.10;11.80;;;;;;;10.92;78.09;100796.38;5015366;28;20947;-68
2022/04/27 01:38:40;;;;;;;13.38;12.07;;;;;;;10.93;77.45;100790.69;5024859;28;21037;-68
2022/04/27 01:41:05;;;;;;;13.65;12.32;;;;;;;10.94;77.52;100800.50;5025641;28;20452;-68
2022/04/27 01:43:32;;;;;;;13.83;12.43;;;;;;;10.89;77.79;100799.56;5008479;28;20445;-68
2022/04/27 01:45:58;;;;;;;13.77;12.38;;;;;;;10.89;77.73;100805.00;5010239;28;20495;-68
2022/04/27 01:48:23;;;;;;;13.60;12.20;;;;;;;10.83;78.01;100804.03;5014192;28;20932;-68
2022/04/27 01:50:49;;;;;;;13.03;11.73;;;;;;;10.86;77.78;100810.88;5026531;28;20396;-68
2022/04/27 01:55:58;;;;;;;13.23;11.82;;;;;;;11.10;77.27;100820.63;5023842;28;20433;-68
2022/04/27 01:58:24;;;;;;;12.82;11.60;;;;;;;10.87;77.88;100817.94;5016159;28;20387;-68
2022/04/27 02:00:50;;;;;;;16.17;12.27;;;;;;;10.83;78.08;100819.50;5024887;28;20435;-67
2022/04/27 02:03:17;;;;;;;12.30;11.10;;;;;;;10.78;78.18;100822.09;5009800;28;20416;-68
2022/04/27 02:05:44;;;;;;;14.30;11.85;;;;;;;10.79;78.48;100819.16;5024096;28;20422;-68
2022/04/27 02:08:09;;;;;;;13.27;11.90;;;;;;;10.82;78.22;100815.97;5015554;28;20491;-68
2022/04/27 02:10:37;;;;;;;12.30;11.20;;;;;;;11.12;77.17;100818.50;5025412;28;20488;-68
2022/04/27 02:13:04;;;;;;;13.80;12.27;;;;;;;10.92;77.90;100820.78;5005828;28;20483;-68
2022/04/27 02:15:29;;;;;;;13.20;11.80;;;;;;;10.86;77.91;100811.72;5012077;28;20479;-68
2022/04/27 02:17:54;;;;;;;12.63;11.37;;;;;;;10.78;77.97;100822.91;5028115;28;20457;-68
2022/04/27 02:20:22;;;;;;;14.05;12.65;;;;;;;10.78;78.01;100824.78;5013064;28;20443;-68
2022/04/27 02:22:47;;;;;;;12.77;11.50;;;;;;;10.82;78.34;100823.28;5009691;28;20420;-68
2022/04/27 02:25:12;;;;;;;13.77;12.00;;;;;;;10.84;78.03;100823.84;5011973;28;20470;-68
2022/04/27 02:27:38;;;;;;;13.20;11.83;;;;;;;10.84;78.00;100821.13;5027774;28;20391;-68
2022/04/27 02:30:04;;;;;;;13.13;11.93;;;;;;;10.84;78.00;100824.66;5009544;28;20496;-68
2022/04/27 02:32:30;;;;;;;14.53;12.23;;;;;;;10.86;77.99;100817.16;5018278;28;20733;-68
2022/04/27 02:34:55;;;;;;;12.17;10.97;;;;;;;10.86;78.24;100819.84;5012921;28;20424;-68
2022/04/27 02:37:20;;;;;;;13.57;12.00;;;;;;;10.89;78.28;100815.84;5016728;28;20401;-68
2022/04/27 02:39:46;;;;;;;13.47;12.07;;;;;;;10.86;78.25;100821.72;5010925;28;20472;-68
2022/04/27 02:42:11;;;;;;;13.63;12.23;;;;;;;10.85;78.30;100818.19;5019475;28;20426;-68
2022/04/27 02:44:36;;;;;;;12.60;11.37;;;;;;;10.83;78.28;100823.00;5020075;28;20404;-68
2022/04/27 02:47:02;;;;;;;12.83;11.63;;;;;;;10.83;78.01;100819.50;5026788;28;20896;-68
2022/04/27 02:52:13;;;;;;;13.75;12.35;;;;;;;10.81;78.12;100827.03;5009988;28;20500;-68
2022/04/27 02:54:38;;;;;;;13.48;12.18;;;;;;;10.82;77.92;100834.13;5018621;28;20392;-68
2022/04/27 02:57:03;;;;;;;13.20;12.00;;;;;;;10.80;77.61;100830.81;5027471;28;20901;-68
2022/04/27 02:59:29;;;;;;;13.73;12.37;;;;;;;10.76;78.09;100835.91;5012364;28;20501;-68
2022/04/27 03:01:54;;;;;;;13.83;12.43;;;;;;;10.75;78.27;100842.38;5023497;28;20400;-68
2022/04/27 03:04:19;;;;;;;13.05;11.75;;;;;;;10.80;78.19;100842.47;5023445;28;20481;-68
2022/04/27 03:06:44;;;;;;;14.20;12.80;;;;;;;10.79;78.10;100832.72;5012260;28;20775;-68
2022/04/27 03:09:10;;;;;;;13.87;11.83;;;;;;;10.78;77.51;100831.06;5019982;28;20435;-68
2022/04/27 03:11:35;;;;;;;13.73;12.43;;;;;;;10.77;77.93;100828.56;5011594;28;20404;-68
2022/04/27 03:14:00;;;;;;;14.10;12.80;;;;;;;10.80;77.87;100834.34;5020255;28;20395;-68
2022/04/27 03:16:26;;;;;;;14.33;12.93;;;;;;;10.81;77.88;100837.88;5016998;28;20401;-68
2022/04/27 03:18:51;;;;;;;14.10;12.70;;;;;;;10.81;77.99;100838.69;5028136;28;20574;-68
2022/04/27 03:21:16;;;;;;;14.07;12.57;;;;;;;10.78;77.82;100841.06;5013305;28;20758;-68
2022/04/27 03:23:42;;;;;;;15.43;13.13;;;;;;;10.75;78.41;100841.53;5024577;28;20387;-68
2022/04/27 03:26:07;;;;;;;42.88;30.63;;;;;;;10.76;78.07;100835.06;5021880;28;20417;-68
2022/04/27 03:28:33;;;;;;;16.07;14.30;;;;;;;10.77;77.93;100829.38;5018226;28;20444;-68
2022/04/27 03:30:58;;;;;;;15.97;14.27;;;;;;;10.77;77.99;100831.28;5019478;28;20410;-68
2022/04/27 03:33:24;;;;;;;15.05;13.30;;;;;;;10.79;77.86;100831.88;5028179;28;20422;-68
2022/04/27 03:35:49;;;;;;;15.77;14.07;;;;;;;10.80;77.97;100841.66;5026782;28;20410;-68
2022/04/27 03:38:15;;;;;;;16.20;14.30;;;;;;;10.81;78.01;100840.59;5018237;28;20416;-68
2022/04/27 03:40:44;;;;;;;25.08;18.85;;;;;;;10.80;78.03;100847.09;5016238;28;20902;-68
2022/04/27 03:43:09;;;;;;;20.23;15.48;;;;;;;10.82;78.02;100844.97;5014127;28;20440;-68
2022/04/27 03:45:35;;;;;;;21.07;16.73;;;;;;;10.81;78.10;100844.13;5019427;28;20848;-68
2022/04/27 03:48:00;;;;;;;15.53;13.93;;;;;;;10.83;78.04;100852.03;5030042;28;20395;-68
2022/04/27 03:50:26;;;;;;;15.90;14.20;;;;;;;10.84;77.76;100850.94;5011397;28;20419;-68
2022/04/27 03:52:51;;;;;;;16.33;14.70;;;;;;;10.84;77.76;100850.94;5009033;28;20412;-68
2022/04/27 03:55:17;;;;;;;16.87;15.07;;;;;;;10.82;78.09;100853.09;5024793;28;20394;-68
2022/04/27 03:57:42;;;;;;;15.93;14.35;;;;;;;10.81;78.05;100859.56;5020255;28;20920;-68
2022/04/27 04:00:09;;;;;;;17.80;14.70;;;;;;;10.82;78.19;100863.94;5030580;28;20379;-68
2022/04/27 04:02:36;;;;;;;17.75;14.57;;;;;;;10.79;78.17;100856.28;5011531;28;20410;-67
2022/04/27 04:05:01;;;;;;;17.05;15.35;;;;;;;10.78;78.46;100871.72;5023296;28;20959;-68
2022/04/27 04:07:26;;;;;;;18.77;15.13;;;;;;;10.76;78.65;100871.13;5021007;28;20393;-68
2022/04/27 04:09:52;;;;;;;17.13;15.33;;;;;;;10.75;78.56;100869.47;5030326;28;20383;-68
2022/04/27 04:12:17;;;;;;;17.50;15.80;;;;;;;10.72;78.60;100869.94;5010629;28;20523;-68
2022/04/27 04:14:42;;;;;;;17.77;15.87;;;;;;;10.76;78.71;100876.56;5013496;28;20768;-68
2022/04/27 04:17:08;;;;;;;19.03;17.03;;;;;;;10.77;78.85;100880.06;5030837;28;20399;-68
2022/04/27 04:19:33;;;;;;;18.07;16.17;;;;;;;10.74;78.95;100877.84;5018148;28;20409;-68
2022/04/27 04:21:59;;;;;;;16.67;14.90;;;;;;;10.75;78.91;100887.63;5013064;28;20631;-68
2022/04/27 04:24:25;;;;;;;16.60;14.90;;;;;;;10.75;79.13;100880.31;5025074;28;20510;-68
2022/04/27 04:29:34;;;;;;;17.83;15.65;;;;;;;10.75;78.59;100891.16;5030806;28;20597;-68
2022/04/27 04:31:59;;;;;;;16.60;15.00;;;;;;;10.74;78.67;100889.50;5021173;28;20410;-68
2022/04/27 04:34:25;;;;;;;15.90;14.30;;;;;;;10.74;79.01;100894.94;5012680;28;20534;-68
2022/04/27 04:36:50;;;;;;;17.70;15.50;;;;;;;10.76;78.93;100900.97;5010346;28;20424;-67
2022/04/27 04:39:15;;;;;;;17.00;15.30;;;;;;;10.76;78.95;100909.09;5018489;28;20411;-68
2022/04/27 04:41:40;;;;;;;18.30;16.50;;;;;;;10.77;78.84;100908.00;5019076;28;20908;-68
2022/04/27 04:44:06;;;;;;;17.07;15.37;;;;;;;10.79;78.92;100913.22;5012722;28;20415;-68
2022/04/27 04:46:31;;;;;;;17.20;15.13;;;;;;;10.80;78.96;100918.38;5010091;28;20483;-67
2022/04/27 04:48:56;;;;;;;18.70;15.90;;;;;;;10.78;79.02;100919.69;5014036;28;20424;-68
2022/04/27 04:51:21;;;;;;;18.17;15.83;;;;;;;10.76;78.97;100924.53;5019141;28;20464;-68
2022/04/27 04:53:47;;;;;;;17.08;15.18;;;;;;;10.76;79.29;100916.38;5013393;28;20408;-68
2022/04/27 04:56:12;;;;;;;16.80;15.07;;;;;;;10.78;79.31;100930.53;5027194;28;20433;-67
2022/04/27 04:58:37;;;;;;;16.50;14.47;;;;;;;10.81;79.09;100925.47;5013158;28;20408;-68
2022/04/27 05:01:03;;;;;;;16.00;13.97;;;;;;;10.78;79.08;100922.38;5012545;28;20389;-68
2022/04/27 05:03:30;;;;;;;16.55;14.95;;;;;;;10.74;79.21;100927.44;5013162;28;20922;-67
2022/04/27 05:05:55;;;;;;;16.92;14.30;;;;;;;10.74;79.10;100924.75;5012883;28;20413;-68
2022/04/27 05:08:20;;;;;;;16.23;14.67;;;;;;;10.78;79.23;100933.22;5011022;28;20439;-68
2022/04/27 05:10:45;;;;;;;17.23;14.63;;;;;;;10.77;78.88;100921.56;5013299;28;21939;-68
2022/04/27 05:13:11;;;;;;;15.03;13.63;;;;;;;10.77;78.96;100934.28;5011741;28;20424;-68
2022/04/27 05:15:36;;;;;;;14.53;13.13;;;;;;;10.79;79.05;100933.00;5012665;28;20496;-68
2022/04/27 05:18:01;;;;;;;14.90;13.30;;;;;;;10.82;79.14;100935.25;5008278;28;20957;-68
2022/04/27 05:20:27;;;;;;;15.07;13.17;;;;;;;10.83;78.72;100946.94;5009111;28;20440;-68
2022/04/27 05:22:52;;;;;;;13.73;12.33;;;;;;;10.81;78.72;100936.31;5011160;28;20532;-68
2022/04/27 05:25:18;;;;;;;13.83;12.43;;;;;;;10.83;78.59;100938.78;5009135;28;20424;-68
2022/04/27 05:27:43;;;;;;;14.88;13.27;;;;;;;10.83;78.39;100942.31;5042108;28;20427;-68
2022/04/27 05:32:55;;;;;;;13.30;11.93;;;;;;;10.90;78.63;100950.31;5011810;28;20403;-68
2022/04/27 05:35:20;;;;;;;14.35;11.75;;;;;;;10.84;78.34;100948.56;5011928;28;20880;-68
2022/04/27 05:37:45;;;;;;;12.57;11.40;;;;;;;10.82;78.62;100950.69;5009941;28;20408;-67
2022/04/27 05:40:11;;;;;;;12.87;11.67;;;;;;;10.87;78.21;100953.50;5003757;28;20425;-68
2022/04/27 05:42:37;;;;;;;14.32;12.13;;;;;;;10.89;78.03;100951.41;5009073;28;20411;-68
2022/04/27 05:45:04;;;;;;;12.87;11.63;;;;;;;10.92;77.63;100954.47;5012453;28;20766;-68
2022/04/27 05:47:29;;;;;;;13.25;11.82;;;;;;;10.94;77.67;100957.78;5017060;28;20391;-68
2022/04/27 05:49:54;;;;;;;13.48;12.10;;;;;;;10.88;78.08;100956.00;5010256;28;20421;-68
2022/04/27 05:52:20;;;;;;;13.33;12.03;;;;;;;10.88;77.96;100956.00;5023487;28;20828;-68
2022/04/27 05:54:47;;;;;;;13.20;11.80;;;;;;;10.89;78.06;100963.09;5025550;28;20384;-68
2022/04/27 05:57:12;;;;;;;13.85;12.45;;;;;;;10.93;78.17;100961.53;5014937;28;20397;-68
2022/04/27 05:59:38;;;;;;;13.90;12.60;;;;;;;11.00;78.18;100963.34;5010895;28;20473;-68
2022/04/27 06:02:03;;;;;;;12.93;11.63;;;;;;;11.02;78.51;100963.91;5021246;28;20420;-68
2022/04/27 06:04:28;;;;;;;13.93;12.53;;;;;;;11.10;78.20;100971.72;5026210;28;20393;-67
2022/04/27 06:06:54;;;;;;;15.37;12.87;;;;;;;11.15;77.98;100979.94;5021125;28;20409;-68
2022/04/27 06:09:19;;;;;;;15.17;12.77;;;;;;;11.19;77.81;100978.41;5018069;28;20892;-68
2022/04/27 06:11:44;;;;;;;12.50;11.40;;;;;;;11.21;77.79;100982.53;5019696;28;20404;-68
2022/04/27 06:14:10;;;;;;;13.73;12.43;;;;;;;11.18;77.64;100991.16;5016379;28;20399;-68
2022/04/27 06:16:35;;;;;;;13.77;12.37;;;;;;;11.20;77.94;100991.72;5024019;28;20978;-68
2022/04/27 06:19:01;;;;;;;14.15;12.73;;;;;;;11.28;77.48;100990.56;5015607;28;20499;-68
2022/04/27 06:21:33;;;;;;;17.27;12.55;;;;;;;11.31;77.11;100988.22;5021866;28;20447;-68
2022/04/27 06:24:00;;;;;;;14.60;13.15;;;;;;;11.38;77.11;100990.78;4995144;28;20861;-68
2022/04/27 06:26:30;;;;;;;14.15;12.73;;;;;;;11.43;76.98;100990.91;5011317;28;20508;-68
2022/04/27 06:28:57;;;;;;;19.60;15.80;;;;;;;11.42;76.97;100998.25;5019801;28;20400;-68
2022/04/27 06:31:22;;;;;;;17.00;15.25;;;;;;;11.40;77.35;100992.19;5027915;28;20395;-67
2022/04/27 06:33:47;;;;;;;16.77;14.17;;;;;;;11.46;77.50;101001.28;5011357;28;20397;-67
2022/04/27 06:36:12;;;;;;;17.13;14.27;;;;;;;11.51;77.31;101004.13;5013634;28;20399;-67
2022/04/27 06:38:38;;;;;;;18.30;16.07;;;;;;;11.56;77.22;101006.13;5011819;28;20407;-68
2022/04/27 06:41:03;;;;;;;17.00;15.30;;;;;;;11.57;76.93;101002.34;5020806;28;20559;-68
2022/04/27 06:43:28;;;;;;;16.83;15.13;;;;;;;11.57;76.80;101005.03;5014450;28;20407;-68
2022/04/27 06:45:54;;;;;;;18.83;16.07;;;;;;;11.60;77.16;101007.28;5010413;28;20421;-67
2022/04/27 06:48:19;;;;;;;18.73;16.77;;;;;;;11.62;76.74;101005.19;5021677;28;20390;-67
2022/04/27 06:50:45;;;;;;;19.97;17.87;;;;;;;11.63;76.82;101007.63;5018099;28;20404;-67
2022/04/27 06:53:10;;;;;;;21.80;19.43;;;;;;;11.68;76.96;101007.75;5001064;28;20401;-68
2022/04/27 06:55:36;;;;;;;22.13;19.83;;;;;;;11.72;76.94;101014.38;5014349;28;20883;-68
2022/04/27 06:58:01;;;;;;;29.13;22.73;;;;;;;11.71;76.51;101015.47;5024782;28;20423;-68
2022/04/27 07:00:27;;;;;;;23.93;21.33;;;;;;;11.71;76.35;101023.59;5022687;28;20937;-68
2022/04/27 07:02:52;;;;;;;24.00;21.40;;;;;;;11.80;76.47;101026.75;5031635;28;20442;-68
2022/04/27 07:05:19;;;;;;;25.67;22.90;;;;;;;11.89;76.38;101026.16;5014488;28;20757;-67
2022/04/27 07:07:45;;;;;;;27.00;24.10;;;;;;;11.92;75.76;101022.94;5023547;28;20391;-68
2022/04/27 07:10:12;;;;;;;26.77;23.83;;;;;;;11.96;75.71;101021.41;5018258;28;20417;-67
2022/04/27 07:12:37;;;;;;;26.08;23.02;;;;;;;11.96;75.11;101023.31;5010659;28;20749;-68
2022/04/27 07:15:03;;;;;;;27.35;24.20;;;;;;;12.04;75.39;101022.09;5012069;28;20413;-67
2022/04/27 07:17:28;;;;;;;29.25;24.65;;;;;;;12.01;74.98;101025.31;5020998;28;20423;-67
2022/04/27 07:19:54;;;;;;;27.33;24.43;;;;;;;11.98;74.99;101031.22;5028916;28;20410;-68
2022/04/27 07:22:19;;;;;;;27.50;23.77;;;;;;;11.91;75.03;101021.31;5020287;28;20403;-68
2022/04/27 07:24:44;;;;;;;27.37;23.70;;;;;;;12.02;75.24;101032.41;5026694;28;20422;-68
2022/04/27 07:27:10;;;;;;;26.83;24.03;;;;;;;12.04;74.73;101020.22;5014903;28;20409;-67
2022/04/27 07:29:36;;;;;;;28.08;24.38;;;;;;;12.10;74.43;101030.13;5008017;28;20409;-67
2022/04/27 07:32:05;;;;;;;26.85;23.60;;;;;;;12.20;74.76;101040.38;5016126;28;20428;-67
2022/04/27 07:34:30;;;;;;;26.98;23.75;;;;;;;12.29;74.39;101031.59;5016626;28;20440;-67
2022/04/27 07:36:58;;;;;;;24.90;22.13;;;;;;;12.31;73.87;101040.34;5013941;28;20825;-67
2022/04/27 07:39:23;;;;;;;27.08;23.63;;;;;;;12.34;73.95;101039.84;5013230;28;20483;-68
2022/04/27 07:41:49;;;;;;;25.45;22.73;;;;;;;12.46;73.78;101047.94;5014619;28;20411;-67
2022/04/27 07:44:14;;;;;;;27.00;24.00;;;;;;;12.46;73.46;101048.78;5017769;28;20492;-68
2022/04/27 07:46:39;;;;;;;25.00;22.30;;;;;;;12.41;73.51;101042.44;5014918;28;20416;-68
2022/04/27 07:49:05;;;;;;;27.60;23.27;;;;;;;12.43;73.60;101048.44;5015910;28;20971;-67
2022/04/27 07:51:30;;;;;;;23.33;20.77;;;;;;;12.45;73.34;101051.72;5026513;28;20395;-67
2022/04/27 07:53:55;;;;;;;23.03;20.43;;;;;;;12.47;72.82;101057.75;5017401;28;20431;-68
2022/04/27 07:56:20;;;;;;;21.80;19.53;;;;;;;12.45;72.76;101060.72;5026803;28;20493;-67
2022/04/27 07:58:46;;;;;;;22.03;19.70;;;;;;;12.54;72.56;101065.78;5013176;28;20415;-68
2022/04/27 08:01:11;;;;;;;22.50;20.13;;;;;;;12.51;72.51;101063.53;5014158;28;20412;-67
2022/04/27 08:03:37;;;;;;;22.27;19.98;;;;;;;12.47;72.40;101068.63;5028506;28;20387;-67
2022/04/27 08:06:03;;;;;;;21.70;19.00;;;;;;;12.47;72.01;101069.47;5017869;28;20425;-67
2022/04/27 08:08:29;;;;;;;21.52;18.52;;;;;;;12.36;72.10;101073.03;5017922;28;20460;-67
2022/04/27 08:10:55;;;;;;;19.83;17.73;;;;;;;12.35;72.33;101073.25;5024312;28;20441;-68
2022/04/27 08:13:20;;;;;;;19.67;17.65;;;;;;;12.32;72.26;101080.00;5019863;28;20416;-67
2022/04/27 08:15:45;;;;;;;21.90;18.37;;;;;;;12.32;72.38;101073.75;5030058;28;20402;-67
2022/04/27 08:18:11;;;;;;;23.13;18.33;;;;;;;12.30;72.52;101070.47;5012920;28;20417;-68
2022/04/27 08:23:24;;;;;;;18.55;16.55;;;;;;;12.54;73.13;101082.91;5021557;28;20501;-68
2022/04/27 08:25:50;;;;;;;19.33;17.33;;;;;;;12.68;72.26;101072.56;5029627;28;20501;-67
2022/04/27 08:28:16;;;;;;;19.73;17.65;;;;;;;12.76;71.91;101081.16;5019208;28;20494;-67
2022/04/27 08:30:44;;;;;;;21.25;16.67;;;;;;;12.80;71.43;101082.31;5020752;28;20418;-67
2022/04/27 08:33:10;;;;;;;22.38;17.85;;;;;;;12.77;71.51;101077.38;5028732;28;20566;-68
2022/04/27 08:35:36;;;;;;;18.83;16.90;;;;;;;12.73;71.45;101087.06;5017313;28;20401;-67
2022/04/27 08:38:03;;;;;;;22.17;18.17;;;;;;;12.78;71.58;101078.16;5020612;28;20457;-67
2022/04/27 08:40:29;;;;;;;20.85;18.70;;;;;;;12.92;71.69;101080.34;5022772;28;20415;-68
2022/04/27 08:42:55;;;;;;;20.50;17.17;;;;;;;12.99;71.44;101086.47;5011498;28;20564;-67
2022/04/27 08:45:21;;;;;;;17.55;15.75;;;;;;;13.02;71.19;101085.97;5007028;28;20899;-67
2022/04/27 08:47:49;;;;;;;20.70;16.45;;;;;;;13.11;71.34;101091.03;5011054;28;20420;-67
2022/04/27 08:50:18;;;;;;;17.08;15.27;;;;;;;13.11;70.47;101088.31;5016045;28;20752;-67
2022/04/27 08:52:44;;;;;;;16.20;14.50;;;;;;;13.09;70.21;101087.75;5016002;28;20393;-67
2022/04/27 08:55:11;;;;;;;14.32;12.82;;;;;;;13.07;69.68;101092.59;5016291;28;20420;-67
2022/04/27 08:57:37;;;;;;;11.68;10.43;;;;;;;13.09;69.85;101087.75;5012676;28;20400;-68
2022/04/27 09:00:08;;;;;;;11.32;9.02;;;;;;;13.19;68.40;101091.47;5011633;28;20413;-67
2022/04/27 09:02:33;;;;;;;8.68;7.93;;;;;;;13.40;67.29;101087.19;5011873;28;20772;-68
2022/04/27 09:05:18;;;;;;;8.53;7.63;;;;;;;13.59;66.78;101085.84;5011006;28;20435;-68
2022/04/27 09:07:56;;;;;;;8.20;7.40;;;;;;;13.85;66.49;101087.03;5020762;28;20490;-68
2022/04/27 09:10:24;;;;;;;6.35;5.75;;;;;;;14.09;65.29;101079.47;5011059;28;20927;-67
2022/04/27 09:12:55;;;;;;;7.35;6.78;;;;;;;14.23;64.69;101080.72;5028143;28;20461;-68
2022/04/27 09:15:22;;;;;;;7.18;6.47;;;;;;;14.31;63.98;101081.09;5011992;28;20455;-67
2022/04/27 09:20:48;;;;;;;6.78;6.18;;;;;;;14.67;62.37;101087.81;5024334;28;20416;-67
2022/04/27 09:23:23;;;;;;;6.53;6.03;;;;;;;14.72;61.98;101090.59;4999349;28;20836;-68
2022/04/27 09:25:51;;;;;;;5.78;5.28;;;;;;;16.25;57.33;101079.75;5014000;28;20420;-68
2022/04/27 09:28:17;;;;;;;5.95;5.45;;;;;;;16.75;55.88;101085.41;5009804;28;20880;-68
2022/04/27 09:30:43;;;;;;;6.88;6.07;;;;;;;15.82;58.10;101080.88;5009331;28;20436;-68
2022/04/27 09:33:09;;;;;;;6.53;5.95;;;;;;;15.13;60.54;101085.53;5011235;28;20416;-67
2022/04/27 09:35:36;;;;;;;5.67;4.90;;;;;;;14.66;60.63;101088.88;5023382;28;20408;-68
2022/04/27 09:38:21;;;;;;;6.18;5.68;;;;;;;14.72;61.43;101092.50;5017536;28;20931;-68
2022/04/27 09:40:52;;;;;;;5.13;4.72;;;;;;;14.80;60.53;101087.41;5014677;28;20489;-68
2022/04/27 09:43:44;;;;;;;6.13;5.63;;;;;;;14.71;61.51;101085.41;5022330;28;20387;-67
2022/04/27 09:46:22;;;;;;;4.60;4.20;;;;;;;14.82;61.77;101082.50;5014968;28;20775;-68
2022/04/27 09:49:11;;;;;;;4.30;3.88;;;;;;;15.53;59.63;101085.91;5025163;28;20493;-68
2022/04/27 09:51:36;;;;;;;4.35;3.95;;;;;;;16.13;57.73;101087.34;5011113;28;20404;-68
2022/04/27 09:54:03;;;;;;;4.30;4.00;;;;;;;17.16;56.61;101090.97;5012727;28;20903;-68
2022/04/27 09:56:34;;;;;;;4.57;3.85;;;;;;;18.25;53.13;101084.75;5009658;28;20900;-68
2022/04/27 09:59:05;;;;;;;4.53;4.13;;;;;;;19.07;51.71;101086.78;5017026;28;20489;-68
2022/04/27 10:01:34;;;;;;;3.75;3.55;;;;;;;19.96;49.28;101088.19;5011817;28;20392;-68
2022/04/27 10:04:04;;;;;;;3.08;2.97;;;;;;;20.65;47.01;101087.63;5027630;28;20398;-68
2022/04/27 10:06:31;;;;;;;4.63;3.67;;;;;;;21.24;46.28;101078.78;5014632;28;20431;-68
2022/04/27 10:08:59;;;;;;;4.25;3.80;;;;;;;20.84;45.56;101084.91;5020463;28;20391;-68
2022/04/27 10:11:26;;;;;;;6.75;3.38;;;;;;;19.90;46.61;101078.38;5026139;28;20430;-68
2022/04/27 10:13:53;;;;;;;3.73;3.43;;;;;;;19.61;47.88;101076.47;5015684;28;20404;-68
2022/04/27 10:16:21;;;;;;;3.70;3.40;;;;;;;19.06;48.61;101086.00;5023874;28;20405;-68
2022/04/27 10:18:46;;;;;;;3.58;3.22;;;;;;;19.20;48.83;101077.88;5012231;28;20404;-68
2022/04/27 10:21:12;;;;;;;3.63;3.40;;;;;;;19.61;48.67;101081.97;5015073;28;20415;-68
2022/04/27 10:23:44;;;;;;;3.58;3.28;;;;;;;21.02;45.16;101076.63;5025419;28;20527;-68
2022/04/27 10:26:17;;;;;;;3.67;3.42;;;;;;;21.49;43.22;101083.88;5009531;28;20475;-68
2022/04/27 10:28:51;;;;;;;3.22;3.03;;;;;;;21.20;43.95;101072.25;5007691;28;20431;-68
2022/04/27 10:31:47;;;;;;;3.38;3.17;;;;;;;20.41;44.10;101086.88;5011916;28;20454;-68
2022/04/27 10:34:22;;;;;;;3.57;2.77;;;;;;;19.68;46.63;101087.13;5007686;28;21021;-68
2022/04/27 10:36:49;;;;;;;3.40;3.10;;;;;;;21.29;44.06;101077.88;5012868;28;20400;-68
2022/04/27 10:39:20;;;;;;;3.05;2.88;;;;;;;22.35;40.81;101078.66;5015472;28;20416;-68
2022/04/27 10:41:55;;;;;;;2.92;2.83;;;;;;;22.97;40.55;101079.78;5009618;28;20432;-68
2022/04/27 10:44:21;;;;;;;3.08;2.65;;;;;;;23.76;39.05;101070.59;5014092;28;20442;-69
2022/04/27 10:46:46;;;;;;;2.90;2.80;;;;;;;24.58;38.29;101077.41;5017761;28;20811;-69
2022/04/27 10:49:24;;;;;;;2.57;2.47;;;;;;;24.96;36.48;101072.13;5019254;28;20408;-68
2022/04/27 10:52:03;;;;;;;2.45;2.35;;;;;;;25.41;35.71;101072.56;5015353;28;20397;-68
2022/04/27 10:54:33;;;;;;;1.92;1.90;;;;;;;25.40;34.88;101068.13;5011275;28;20404;-68
2022/04/27 10:57:13;;;;;;;2.37;2.37;;;;;;;24.52;36.49;101070.41;5012500;28;20392;-69
2022/04/27 10:59:50;;;;;;;2.50;2.03;;;;;;;24.72;35.27;101075.31;5003438;28;20409;-68
2022/04/27 11:02:32;;;;;;;1.88;1.77;;;;;;;25.27;35.23;101070.78;5023430;28;20399;-68
2022/04/27 11:04:58;;;;;;;3.37;2.70;;;;;;;25.53;35.48;101072.72;5018660;28;20403;-68
2022/04/27 11:07:51;;;;;;;2.35;2.30;;;;;;;24.48;35.57;101064.69;5014327;28;20412;-68
2022/04/27 11:10:21;;;;;;;3.20;2.65;;;;;;;23.03;37.64;101075.78;5003039;28;20416;-68
2022/04/27 11:12:56;;;;;;;2.70;2.60;;;;;;;22.43;39.74;101070.47;5004125;28;20496;-68
2022/04/27 11:15:25;;;;;;;3.22;2.92;;;;;;;22.76;39.06;101071.16;5017261;28;20411;-68
2022/04/27 11:17:59;;;;;;;2.90;2.67;;;;;;;22.04;40.17;101067.44;5021596;28;20764;-68
2022/04/27 11:20:32;;;;;;;2.60;2.50;;;;;;;21.60;41.87;101067.97;5012000;28;20407;-68
2022/04/27 11:22:58;;;;;;;2.47;2.38;;;;;;;22.39;41.22;101065.91;5008976;28;20488;-68
2022/04/27 11:25:32;;;;;;;3.58;2.50;;;;;;;23.66;39.27;101068.09;5012461;28;20414;-68
2022/04/27 11:27:59;;;;;;;4.68;2.55;;;;;;;24.06;35.89;101068.13;5011302;28;20411;-68